Time;durP1;ratioP1;P1;durP2;ratioP2;P2;SDS_P1;SDS_P2;PMS_P1;PMS_P2;Temp;Humidity;BMP_temperature;BMP_pressure;BME280_temperature;BME280_humidity;BME280_pressure;Samples;Min_cycle;Max_cycle;Signal;HPM_P1;HPM_P2
2023/04/11 00:00:19;;;;;;;6.95;2.25;;;10.50;85.80;;;;;;4992210;28;20402;-72
2023/04/11 00:02:45;;;;;;;5.32;2.30;;;10.70;83.30;;;;;;4992472;28;20795;-72
2023/04/11 00:05:11;;;;;;;6.03;2.07;;;10.60;82.10;;;;;;4991727;28;20799;-72
2023/04/11 00:07:37;;;;;;;9.90;2.50;;;10.60;83.30;;;;;;4991597;28;20397;-69
2023/04/11 00:10:03;;;;;;;4.45;2.10;;;10.60;82.50;;;;;;4991567;28;20852;-71
2023/04/11 00:12:29;;;;;;;6.40;1.90;;;10.60;82.30;;;;;;4991092;28;20467;-72
2023/04/11 00:14:55;;;;;;;5.90;2.28;;;10.50;82.60;;;;;;4993140;28;20406;-71
2023/04/11 00:17:22;;;;;;;4.80;2.08;;;10.60;81.90;;;;;;4992900;28;20389;-71
2023/04/11 00:19:48;;;;;;;7.25;2.08;;;10.60;81.20;;;;;;4991050;28;20836;-71
2023/04/11 00:22:16;;;;;;;5.72;2.08;;;10.70;81.00;;;;;;4991268;28;20469;-70
2023/04/11 00:24:42;;;;;;;7.20;2.10;;;10.70;79.00;;;;;;4991275;28;20386;-71
2023/04/11 00:27:07;;;;;;;6.28;2.03;;;10.80;77.80;;;;;;4991353;28;20390;-71
2023/04/11 00:29:34;;;;;;;6.38;2.42;;;10.90;76.60;;;;;;4992411;28;20917;-70
2023/04/11 00:32:00;;;;;;;6.63;2.20;;;11.00;74.70;;;;;;4995190;28;20415;-71
2023/04/11 00:34:26;;;;;;;6.23;1.80;;;11.00;73.20;;;;;;4977535;28;20420;-71
2023/04/11 00:36:52;;;;;;;11.15;2.65;;;11.10;71.50;;;;;;4995056;28;20389;-71
2023/04/11 00:39:19;;;;;;;8.65;2.75;;;11.10;71.90;;;;;;4995061;28;20473;-72
2023/04/11 00:41:45;;;;;;;8.13;2.67;;;11.10;71.10;;;;;;4995468;28;20388;-73
2023/04/11 00:44:12;;;;;;;8.65;2.30;;;11.10;70.80;;;;;;4996156;28;20398;-71
2023/04/11 00:46:40;;;;;;;9.40;2.65;;;11.10;70.90;;;;;;4995974;28;20755;-70
2023/04/11 00:49:06;;;;;;;8.33;2.77;;;11.10;71.10;;;;;;4996805;28;20403;-71
2023/04/11 00:51:32;;;;;;;9.07;2.53;;;11.00;71.80;;;;;;5000442;28;20382;-71
2023/04/11 00:53:57;;;;;;;18.70;3.60;;;11.10;71.60;;;;;;5014397;28;20469;-71
2023/04/11 00:56:23;;;;;;;15.23;3.43;;;11.10;71.70;;;;;;5002208;28;20859;-71
2023/04/11 00:58:49;;;;;;;20.50;2.97;;;11.10;73.00;;;;;;4995945;28;20386;-71
2023/04/11 01:01:15;;;;;;;13.80;3.10;;;11.10;70.90;;;;;;4994703;28;20390;-71
2023/04/11 01:03:41;;;;;;;15.25;3.92;;;11.10;70.30;;;;;;4995288;28;20445;-71
2023/04/11 01:06:11;;;;;;;12.90;3.10;;;11.10;70.70;;;;;;4995069;28;20382;-70
2023/04/11 01:08:39;;;;;;;12.90;3.53;;;11.20;70.00;;;;;;4994818;28;20406;-71
2023/04/11 01:11:05;;;;;;;18.50;3.55;;;11.10;70.20;;;;;;4994127;28;20784;-70
2023/04/11 01:13:33;;;;;;;16.00;3.37;;;11.10;69.70;;;;;;4977229;28;20445;-71
2023/04/11 01:15:59;;;;;;;15.90;3.20;;;11.10;70.30;;;;;;4994411;28;20386;-71
2023/04/11 01:18:25;;;;;;;17.97;3.27;;;11.00;71.30;;;;;;4994251;28;20394;-71
2023/04/11 01:20:52;;;;;;;16.90;3.97;;;11.10;68.00;;;;;;4993906;28;20397;-71
2023/04/11 01:23:24;;;;;;;17.70;4.10;;;11.00;69.50;;;;;;4994289;28;20490;-71
2023/04/11 01:25:50;;;;;;;13.27;3.38;;;10.90;69.60;;;;;;4994007;28;20401;-71
2023/04/11 01:28:17;;;;;;;19.15;4.00;;;11.00;69.00;;;;;;4993692;28;20476;-70
2023/04/11 01:30:43;;;;;;;18.00;3.90;;;11.00;69.20;;;;;;4994372;28;20452;-70
2023/04/11 01:33:11;;;;;;;16.10;3.80;;;11.00;66.10;;;;;;4976411;28;20390;-71
2023/04/11 01:35:37;;;;;;;16.02;4.20;;;11.00;64.10;;;;;;4993933;28;20382;-71
2023/04/11 01:38:03;;;;;;;18.57;4.30;;;11.00;64.90;;;;;;4976259;28;20394;-71
2023/04/11 01:40:34;;;;;;;23.58;4.50;;;11.00;65.40;;;;;;4993443;28;20480;-71
2023/04/11 01:43:03;;;;;;;27.83;4.50;;;11.00;65.10;;;;;;4977005;28;20533;-72
2023/04/11 01:45:30;;;;;;;25.88;4.38;;;11.00;65.00;;;;;;4994054;28;20383;-71
2023/04/11 01:47:56;;;;;;;20.90;4.30;;;10.90;65.50;;;;;;4994974;28;20390;-71
2023/04/11 01:50:22;;;;;;;30.80;4.53;;;11.00;66.20;;;;;;4993836;28;20462;-70
2023/04/11 01:52:48;;;;;;;18.67;4.88;;;10.90;67.00;;;;;;4993476;28;20755;-71
2023/04/11 01:55:15;;;;;;;17.75;4.50;;;10.90;64.90;;;;;;4976167;28;20406;-71
2023/04/11 01:57:40;;;;;;;17.58;4.05;;;11.00;63.50;;;;;;4993461;28;20417;-71
2023/04/11 02:00:09;;;;;;;21.40;4.20;;;11.00;63.10;;;;;;4993710;28;20379;-70
2023/04/11 02:02:36;;;;;;;18.05;4.55;;;10.90;62.40;;;;;;4993109;28;20398;-71
2023/04/11 02:05:02;;;;;;;20.03;4.30;;;10.80;63.20;;;;;;4993740;28;20395;-71
2023/04/11 02:07:28;;;;;;;26.20;4.47;;;10.80;63.40;;;;;;4993102;28;20847;-71
2023/04/11 02:09:53;;;;;;;21.20;5.35;;;10.70;64.50;;;;;;4992955;28;20390;-71
2023/04/11 02:12:19;;;;;;;27.17;5.88;;;10.60;66.10;;;;;;4992822;28;20394;-70
2023/04/11 02:14:45;;;;;;;20.92;4.65;;;10.40;68.40;;;;;;4993145;28;20414;-72
2023/04/11 02:17:11;;;;;;;31.88;4.85;;;10.30;70.10;;;;;;4993539;28;20478;-71
2023/04/11 02:19:40;;;;;;;23.50;4.60;;;10.20;68.20;;;;;;4975376;28;20395;-71
2023/04/11 02:22:08;;;;;;;26.48;5.22;;;10.20;68.30;;;;;;4992569;28;20379;-71
2023/04/11 02:24:33;;;;;;;28.08;4.88;;;10.20;69.10;;;;;;4993187;28;20752;-71
2023/04/11 02:27:00;;;;;;;22.95;4.70;;;10.10;68.80;;;;;;4993104;28;20394;-71
2023/04/11 02:29:26;;;;;;;24.33;5.15;;;10.10;69.20;;;;;;4993250;28;20855;-71
2023/04/11 02:31:52;;;;;;;29.40;4.78;;;10.10;70.40;;;;;;4992998;28;20422;-71
2023/04/11 02:34:17;;;;;;;28.25;5.40;;;10.10;69.30;;;;;;4993893;28;20445;-72
2023/04/11 02:36:44;;;;;;;22.45;5.18;;;10.00;70.00;;;;;;4994196;28;20398;-72
2023/04/11 02:39:10;;;;;;;24.38;4.95;;;10.00;70.80;;;;;;4994617;28;20470;-71
2023/04/11 02:41:40;;;;;;;26.33;5.45;;;10.00;71.00;;;;;;4994258;28;20422;-70
2023/04/11 02:44:05;;;;;;;25.20;4.80;;;10.00;70.20;;;;;;4976041;28;20445;-70
2023/04/11 02:46:31;;;;;;;24.20;5.10;;;10.00;69.20;;;;;;4993566;28;20836;-72
2023/04/11 02:48:56;;;;;;;30.37;5.63;;;9.90;70.60;;;;;;4976952;28;20402;-69
2023/04/11 02:51:22;;;;;;;24.40;5.73;;;9.90;70.30;;;;;;4993762;28;20394;-70
2023/04/11 02:53:48;;;;;;;22.47;5.23;;;10.00;68.00;;;;;;4997563;28;20412;-71
2023/04/11 02:56:17;;;;;;;26.97;5.30;;;10.00;68.60;;;;;;4993975;28;20426;-72
2023/04/11 02:58:46;;;;;;;26.52;5.70;;;10.00;68.40;;;;;;4992839;28;20386;-71
2023/04/11 03:01:13;;;;;;;34.15;5.47;;;9.90;68.30;;;;;;4991903;28;20386;-72
2023/04/11 03:03:42;;;;;;;26.17;6.00;;;9.90;67.90;;;;;;4975071;28;20413;-72
2023/04/11 03:06:08;;;;;;;34.30;6.10;;;9.80;69.10;;;;;;4992202;28;20398;-71
2023/04/11 03:08:38;;;;;;;25.13;5.90;;;9.80;70.10;;;;;;4991943;28;20918;-71
2023/04/11 03:11:05;;;;;;;25.00;5.53;;;9.70;70.80;;;;;;4992039;28;20382;-70
2023/04/11 03:13:30;;;;;;;25.27;5.18;;;9.70;70.60;;;;;;4992686;28;20410;-71
2023/04/11 03:15:56;;;;;;;34.95;6.70;;;9.80;69.70;;;;;;4992899;28;20394;-71
2023/04/11 03:18:22;;;;;;;34.27;6.07;;;9.80;69.60;;;;;;4976797;28;20742;-71
2023/04/11 03:20:48;;;;;;;34.20;5.93;;;9.90;69.00;;;;;;4995661;28;20386;-71
2023/04/11 03:23:14;;;;;;;32.10;6.15;;;10.00;68.60;;;;;;4995564;28;20477;-71
2023/04/11 03:25:40;;;;;;;31.10;5.40;;;10.00;67.50;;;;;;5000473;28;20577;-70
2023/04/11 03:30:33;;;;;;;26.48;5.40;;;10.00;68.50;;;;;;4952441;29;20450;-75
2023/04/11 03:32:59;;;;;;;33.33;5.13;;;9.90;69.30;;;;;;4954187;29;20390;-75
2023/04/11 03:35:29;;;;;;;34.97;6.03;;;9.80;69.80;;;;;;4955746;28;20468;-74
2023/04/11 03:37:54;;;;;;;29.88;6.28;;;9.70;70.00;;;;;;4955730;29;20383;-75
2023/04/11 03:40:20;;;;;;;30.37;6.40;;;9.60;70.70;;;;;;4955421;29;20444;-74
2023/04/11 03:42:45;;;;;;;32.73;6.10;;;9.50;72.30;;;;;;4953869;29;20434;-74
2023/04/11 03:45:11;;;;;;;35.77;6.57;;;9.50;72.90;;;;;;4953994;29;20902;-74
2023/04/11 03:47:38;;;;;;;39.77;6.27;;;9.40;73.00;;;;;;4953266;29;20405;-74
2023/04/11 03:50:05;;;;;;;33.97;6.00;;;9.50;71.90;;;;;;4953243;29;20799;-75
2023/04/11 03:52:30;;;;;;;21.75;5.50;;;9.50;71.40;;;;;;4952943;28;20789;-75
2023/04/11 03:54:56;;;;;;;23.88;5.32;;;9.50;71.90;;;;;;4952828;29;20409;-75
2023/04/11 03:57:21;;;;;;;25.25;6.45;;;9.50;71.50;;;;;;4953033;29;20890;-75
2023/04/11 03:59:47;;;;;;;32.13;6.60;;;9.50;71.80;;;;;;4953177;29;20382;-75
2023/04/11 04:02:14;;;;;;;30.45;5.95;;;9.70;70.20;;;;;;4953208;29;20398;-74
2023/04/11 04:04:42;;;;;;;25.95;5.95;;;9.70;69.40;;;;;;4951931;28;20417;-74
2023/04/11 04:07:08;;;;;;;33.63;6.07;;;9.80;69.40;;;;;;4951893;29;20855;-74
2023/04/11 04:09:34;;;;;;;31.85;5.43;;;9.80;69.80;;;;;;4948769;28;20923;-74
2023/04/11 04:12:00;;;;;;;29.00;6.03;;;9.80;69.30;;;;;;4933292;29;20478;-77
2023/04/11 04:14:26;;;;;;;28.67;6.38;;;9.90;68.20;;;;;;4934162;29;20847;-76
2023/04/11 04:16:51;;;;;;;21.75;5.20;;;9.90;67.70;;;;;;4935184;29;20474;-74
2023/04/11 04:19:17;;;;;;;26.88;5.18;;;9.90;67.30;;;;;;4935362;29;20392;-75
2023/04/11 04:21:44;;;;;;;32.50;6.65;;;9.90;66.60;;;;;;4951807;29;20390;-73
2023/04/11 04:24:11;;;;;;;36.53;6.40;;;9.80;66.20;;;;;;4969617;28;20389;-73
2023/04/11 04:26:38;;;;;;;31.30;6.40;;;9.90;64.10;;;;;;4958728;28;20507;-73
2023/04/11 04:29:04;;;;;;;30.85;6.47;;;9.80;64.10;;;;;;4960961;28;20404;-73
2023/04/11 04:31:32;;;;;;;28.60;6.00;;;9.80;63.80;;;;;;4959184;29;20440;-74
2023/04/11 04:34:07;;;;;;;30.52;6.45;;;9.80;61.90;;;;;;4955286;29;20414;-74
2023/04/11 04:36:45;;;;;;;29.02;6.32;;;9.80;62.70;;;;;;4956761;28;20417;-74
2023/04/11 04:39:18;;;;;;;24.92;5.68;;;9.70;62.00;;;;;;4953517;28;20394;-75
2023/04/11 04:41:59;;;;;;;23.85;5.95;;;9.70;60.10;;;;;;4951823;29;20449;-75
2023/04/11 04:44:26;;;;;;;21.27;5.45;;;9.60;61.80;;;;;;4952490;28;20441;-75
2023/04/11 04:46:55;;;;;;;32.45;6.28;;;9.60;61.20;;;;;;4952800;29;20401;-75
2023/04/11 04:49:21;;;;;;;30.60;6.10;;;9.60;61.30;;;;;;4951814;29;20400;-75
2023/04/11 04:51:47;;;;;;;25.57;6.17;;;9.70;60.80;;;;;;4952243;29;20856;-74
2023/04/11 04:54:14;;;;;;;26.88;6.40;;;9.70;61.30;;;;;;4952270;29;20481;-74
2023/04/11 04:56:40;;;;;;;24.17;5.75;;;9.80;60.10;;;;;;4952375;28;20397;-74
2023/04/11 04:59:06;;;;;;;24.30;5.50;;;9.80;59.70;;;;;;4952319;28;20386;-75
2023/04/11 05:01:32;;;;;;;31.98;6.30;;;9.80;60.20;;;;;;4951836;28;20402;-74
2023/04/11 05:03:58;;;;;;;26.53;5.73;;;9.90;59.90;;;;;;4952460;29;20401;-75
2023/04/11 05:06:28;;;;;;;22.70;5.30;;;9.80;59.60;;;;;;4952145;29;20390;-75
2023/04/11 05:08:55;;;;;;;27.70;5.88;;;9.80;57.90;;;;;;4952172;29;20398;-75
2023/04/11 05:11:22;;;;;;;18.85;5.63;;;9.80;59.70;;;;;;4952609;29;20417;-75
2023/04/11 05:13:47;;;;;;;26.07;6.20;;;9.70;59.30;;;;;;4952430;28;20420;-73
2023/04/11 05:16:13;;;;;;;24.35;5.72;;;9.70;61.10;;;;;;4953215;28;20915;-73
2023/04/11 05:18:39;;;;;;;25.50;5.68;;;9.70;60.30;;;;;;4955876;29;20488;-75
2023/04/11 05:21:04;;;;;;;33.50;6.38;;;9.70;61.00;;;;;;4955359;29;20417;-75
2023/04/11 05:23:30;;;;;;;24.92;5.63;;;9.70;58.20;;;;;;4955897;29;20425;-75
2023/04/11 05:25:56;;;;;;;29.75;5.75;;;9.90;56.30;;;;;;4956035;28;20394;-75
2023/04/11 05:28:21;;;;;;;24.90;5.90;;;9.90;57.20;;;;;;4955945;29;20389;-75
2023/04/11 05:30:48;;;;;;;20.55;5.30;;;9.80;58.00;;;;;;4954900;28;22440;-74
2023/04/11 05:33:14;;;;;;;26.43;6.30;;;9.90;58.00;;;;;;4955324;29;20472;-75
2023/04/11 05:35:40;;;;;;;29.33;6.20;;;9.90;57.80;;;;;;4955583;29;20421;-74
2023/04/11 05:38:06;;;;;;;26.45;5.57;;;9.90;58.20;;;;;;4955980;29;20859;-75
2023/04/11 05:40:32;;;;;;;31.23;6.55;;;10.00;59.00;;;;;;4954153;29;20480;-74
2023/04/11 05:42:57;;;;;;;22.40;5.43;;;10.00;59.80;;;;;;4973891;29;20426;-74
2023/04/11 05:45:23;;;;;;;22.63;5.30;;;10.00;61.10;;;;;;4968566;29;20497;-75
2023/04/11 05:47:48;;;;;;;24.37;6.10;;;10.10;59.20;;;;;;4955824;29;20432;-75
2023/04/11 05:50:14;;;;;;;28.87;5.80;;;10.10;59.30;;;;;;4955752;29;20489;-74
2023/04/11 05:52:40;;;;;;;19.10;5.80;;;10.10;61.30;;;;;;4954579;28;20383;-74
2023/04/11 05:55:06;;;;;;;21.43;5.20;;;10.10;63.80;;;;;;4953741;29;20417;-75
2023/04/11 05:57:31;;;;;;;24.10;6.10;;;10.00;63.50;;;;;;4955262;29;20394;-75
2023/04/11 06:00:00;;;;;;;27.48;6.00;;;10.00;61.00;;;;;;4955132;29;20416;-75
2023/04/11 06:02:29;;;;;;;35.70;6.85;;;9.90;64.10;;;;;;4954723;28;20751;-75
2023/04/11 06:04:54;;;;;;;22.65;5.80;;;9.80;64.70;;;;;;4955544;29;20480;-76
2023/04/11 06:07:21;;;;;;;27.60;6.77;;;9.80;63.60;;;;;;4963311;29;20424;-74
2023/04/11 06:09:47;;;;;;;21.40;5.88;;;9.90;61.10;;;;;;4958740;28;20400;-74
2023/04/11 06:12:13;;;;;;;21.10;6.15;;;10.00;59.20;;;;;;4957523;28;20413;-75
2023/04/11 06:14:39;;;;;;;19.90;5.43;;;10.10;56.80;;;;;;4958039;29;20498;-74
2023/04/11 06:17:04;;;;;;;26.80;5.83;;;10.10;54.40;;;;;;4957886;29;20389;-74
2023/04/11 06:19:30;;;;;;;24.37;5.70;;;10.20;52.10;;;;;;4954909;28;20926;-75
2023/04/11 06:21:56;;;;;;;20.00;5.70;;;10.20;52.20;;;;;;4953920;29;20452;-74
2023/04/11 06:24:34;;;;;;;24.00;5.70;;;10.20;49.90;;;;;;4954563;29;20396;-75
2023/04/11 06:27:00;;;;;;;18.80;5.63;;;10.20;50.30;;;;;;4954362;28;20402;-74
2023/04/11 06:29:26;;;;;;;24.77;5.90;;;10.30;45.90;;;;;;4954405;29;20416;-75
2023/04/11 06:31:51;;;;;;;22.93;5.60;;;10.20;46.30;;;;;;4954594;29;20757;-74
2023/04/11 06:34:17;;;;;;;22.60;5.60;;;10.20;47.00;;;;;;4954576;29;20410;-75
2023/04/11 06:36:42;;;;;;;25.53;6.40;;;10.20;48.30;;;;;;4954467;29;20393;-74
2023/04/11 06:39:08;;;;;;;21.77;5.40;;;10.30;46.60;;;;;;4954255;29;20393;-75
2023/04/11 06:41:35;;;;;;;21.17;5.65;;;10.30;46.00;;;;;;4953614;28;20390;-74
2023/04/11 06:44:00;;;;;;;22.20;5.47;;;10.40;47.30;;;;;;4954135;28;20398;-75
2023/04/11 06:46:26;;;;;;;27.48;5.93;;;10.40;45.20;;;;;;4954970;29;20398;-74
2023/04/11 06:48:52;;;;;;;20.88;5.32;;;10.40;45.20;;;;;;4954479;29;20871;-75
2023/04/11 06:51:17;;;;;;;16.05;5.05;;;10.50;42.90;;;;;;4953205;29;20408;-75
2023/04/11 06:53:43;;;;;;;21.43;5.27;;;10.60;41.90;;;;;;4953278;29;20454;-74
2023/04/11 06:56:09;;;;;;;21.23;5.38;;;10.70;40.30;;;;;;4954079;29;20768;-75
2023/04/11 06:58:35;;;;;;;18.88;4.88;;;10.70;40.60;;;;;;4953961;28;20406;-75
2023/04/11 07:01:00;;;;;;;20.43;5.50;;;10.70;42.40;;;;;;4953385;29;20394;-74
2023/04/11 07:03:26;;;;;;;21.37;5.93;;;10.70;42.90;;;;;;4953902;29;20390;-75
2023/04/11 07:05:51;;;;;;;23.40;6.50;;;10.80;41.50;;;;;;4957032;29;20401;-74
2023/04/11 07:08:17;;;;;;;21.80;5.10;;;10.80;40.80;;;;;;4953834;29;20393;-76
2023/04/11 07:10:43;;;;;;;24.53;6.13;;;10.90;40.70;;;;;;4954825;29;20871;-75
2023/04/11 07:13:08;;;;;;;25.10;5.70;;;10.90;40.30;;;;;;4953301;29;20421;-74
2023/04/11 07:15:34;;;;;;;19.83;5.50;;;11.10;41.00;;;;;;4953805;29;20449;-75
2023/04/11 07:18:00;;;;;;;24.58;6.03;;;11.00;40.70;;;;;;4953687;29;20394;-75
2023/04/11 07:20:26;;;;;;;30.98;6.63;;;10.90;41.50;;;;;;4953632;29;20904;-74
2023/04/11 07:22:51;;;;;;;24.13;5.25;;;10.80;41.70;;;;;;4952838;28;20390;-74
2023/04/11 07:25:21;;;;;;;21.38;4.43;;;10.90;40.20;;;;;;4954559;28;20933;-75
2023/04/11 07:27:48;;;;;;;19.43;5.50;;;11.00;37.90;;;;;;4953327;28;20393;-75
2023/04/11 07:30:14;;;;;;;23.35;4.85;;;11.00;39.10;;;;;;4953182;29;20492;-75
2023/04/11 07:32:40;;;;;;;24.15;4.50;;;11.10;39.20;;;;;;4952507;28;20390;-74
2023/04/11 07:35:06;;;;;;;18.17;4.70;;;11.20;37.50;;;;;;4953128;29;20460;-76
2023/04/11 07:37:31;;;;;;;20.77;4.65;;;11.30;38.40;;;;;;4953178;28;20733;-75
2023/04/11 07:39:57;;;;;;;24.15;4.60;;;11.40;36.10;;;;;;4952617;28;20390;-75
2023/04/11 07:42:22;;;;;;;19.27;4.60;;;11.40;36.00;;;;;;4952513;29;20783;-75
2023/04/11 07:44:51;;;;;;;21.80;4.70;;;11.40;36.50;;;;;;4953156;29;20926;-76
2023/04/11 07:47:16;;;;;;;20.33;4.55;;;11.40;36.70;;;;;;4953011;29;20398;-75
2023/04/11 07:49:42;;;;;;;18.17;4.30;;;11.30;36.30;;;;;;4952958;29;20454;-74
2023/04/11 07:52:07;;;;;;;19.43;4.37;;;11.30;34.90;;;;;;4952468;29;20405;-75
2023/04/11 07:54:33;;;;;;;18.93;4.20;;;11.30;35.00;;;;;;4953168;29;20528;-74
2023/04/11 07:57:00;;;;;;;15.80;4.10;;;11.40;35.60;;;;;;4953301;29;20429;-74
2023/04/11 07:59:26;;;;;;;24.70;4.40;;;11.40;33.90;;;;;;4952984;28;20418;-75
2023/04/11 08:02:01;;;;;;;19.90;4.28;;;11.50;32.40;;;;;;4952676;29;20488;-75
2023/04/11 08:04:32;;;;;;;22.63;4.60;;;11.70;31.80;;;;;;4953112;28;20419;-75
2023/04/11 08:06:57;;;;;;;16.08;4.30;;;11.80;31.20;;;;;;4952620;29;20386;-75
2023/04/11 08:09:24;;;;;;;18.50;4.27;;;11.80;31.20;;;;;;4953291;28;20735;-74
2023/04/11 08:11:49;;;;;;;16.77;3.97;;;11.80;30.90;;;;;;4952106;28;20394;-75
2023/04/11 08:14:15;;;;;;;18.17;3.75;;;11.70;30.80;;;;;;4952887;29;20414;-75
2023/04/11 08:16:41;;;;;;;15.48;3.53;;;11.60;29.70;;;;;;4952249;29;20393;-75
2023/04/11 08:19:06;;;;;;;15.68;3.40;;;11.50;29.40;;;;;;4953282;29;20436;-75
2023/04/11 08:21:32;;;;;;;10.32;3.60;;;11.50;30.00;;;;;;4952427;29;20456;-75
2023/04/11 08:23:57;;;;;;;17.15;3.60;;;11.60;30.00;;;;;;4952855;29;20400;-74
2023/04/11 08:26:23;;;;;;;16.75;3.75;;;11.80;29.10;;;;;;4952473;29;20449;-76
2023/04/11 08:28:49;;;;;;;14.32;3.42;;;11.90;29.20;;;;;;4952600;29;20393;-75
2023/04/11 08:31:14;;;;;;;15.52;3.92;;;12.20;28.00;;;;;;4952259;29;20402;-75
2023/04/11 08:33:40;;;;;;;10.65;3.05;;;12.30;26.50;;;;;;4952705;29;20516;-75
2023/04/11 08:36:08;;;;;;;16.40;3.00;;;12.40;25.10;;;;;;4953200;28;20784;-75
2023/04/11 08:38:34;;;;;;;16.02;3.00;;;12.40;24.90;;;;;;4952897;29;20452;-74
2023/04/11 08:41:00;;;;;;;12.02;3.00;;;12.30;24.70;;;;;;4952454;29;20385;-74
2023/04/11 08:43:25;;;;;;;19.05;3.33;;;12.10;26.00;;;;;;4952838;29;20397;-74
2023/04/11 08:45:51;;;;;;;11.60;2.88;;;12.20;26.50;;;;;;4952909;29;20472;-74
2023/04/11 08:48:20;;;;;;;14.35;3.20;;;12.20;23.40;;;;;;4952494;28;20894;-74
2023/04/11 08:50:46;;;;;;;13.43;3.10;;;12.10;21.90;;;;;;4954530;28;20416;-75
2023/04/11 08:53:14;;;;;;;15.70;3.37;;;12.10;22.70;;;;;;4957456;29;20890;-74
2023/04/11 08:55:46;;;;;;;12.35;2.70;;;12.10;23.50;;;;;;4970076;29;20393;-75
2023/04/11 08:58:12;;;;;;;11.68;2.90;;;12.20;22.90;;;;;;4967161;29;20406;-75
2023/04/11 09:00:38;;;;;;;12.32;2.67;;;12.50;22.70;;;;;;4958118;29;20438;-75
2023/04/11 09:03:07;;;;;;;12.70;2.97;;;12.70;20.40;;;;;;4958399;29;20393;-76
2023/04/11 09:05:39;;;;;;;13.23;3.13;;;12.60;21.50;;;;;;4956053;29;20481;-76
2023/04/11 09:08:10;;;;;;;11.50;2.80;;;12.70;21.80;;;;;;4956267;29;20531;-75
2023/04/11 09:10:37;;;;;;;8.20;2.60;;;12.60;20.00;;;;;;4956070;29;20393;-75
2023/04/11 09:13:19;;;;;;;10.35;2.63;;;12.70;19.00;;;;;;4955756;28;20456;-75
2023/04/11 09:15:45;;;;;;;11.32;3.03;;;12.60;19.10;;;;;;4956190;28;20402;-76
2023/04/11 09:18:31;;;;;;;11.85;3.60;;;12.60;18.70;;;;;;4956510;28;20803;-75
2023/04/11 09:21:05;;;;;;;10.15;2.60;;;12.80;18.30;;;;;;4955138;28;20393;-75
2023/04/11 09:23:30;;;;;;;8.98;2.60;;;13.00;18.40;;;;;;4958267;29;20469;-74
2023/04/11 09:25:56;;;;;;;13.32;2.90;;;13.30;18.40;;;;;;4955233;29;20835;-75
2023/04/11 09:28:22;;;;;;;15.50;3.20;;;13.50;18.40;;;;;;4981391;23;20386;-71
2023/04/11 09:30:54;;;;;;;7.15;2.20;;;13.70;18.00;;;;;;4995666;28;20453;-73
2023/04/11 09:33:20;;;;;;;9.93;2.47;;;13.90;17.90;;;;;;4994572;28;20378;-72
2023/04/11 09:35:52;;;;;;;6.85;2.15;;;14.00;17.10;;;;;;5011184;28;20398;-72
2023/04/11 09:38:35;;;;;;;13.90;2.53;;;13.90;17.20;;;;;;4997247;28;20466;-72
2023/04/11 09:41:02;;;;;;;11.70;3.30;;;13.80;16.90;;;;;;4994631;28;20939;-72
2023/04/11 09:43:53;;;;;;;11.00;2.97;;;13.70;17.00;;;;;;4995360;28;20625;-72
2023/04/11 09:46:19;;;;;;;10.90;2.30;;;13.70;17.20;;;;;;4999281;28;20383;-73
2023/04/11 09:48:46;;;;;;;10.98;2.72;;;13.70;17.10;;;;;;4999383;28;20405;-73
2023/04/11 09:51:13;;;;;;;9.18;2.58;;;13.80;16.40;;;;;;4995553;28;20387;-72
2023/04/11 09:53:39;;;;;;;8.13;2.20;;;13.60;16.70;;;;;;5010318;28;20919;-73
2023/04/11 09:56:06;;;;;;;7.82;2.70;;;13.50;15.30;;;;;;4995337;28;20397;-73
2023/04/11 09:58:35;;;;;;;5.63;2.27;;;13.40;15.30;;;;;;4992696;28;20495;-72
2023/04/11 10:01:01;;;;;;;7.25;2.47;;;13.40;15.40;;;;;;4993110;28;20436;-73
2023/04/11 10:03:29;;;;;;;7.85;2.30;;;13.60;12.80;;;;;;4993320;28;20394;-72
2023/04/11 10:05:56;;;;;;;11.13;2.40;;;13.60;13.90;;;;;;4994926;28;20491;-73
2023/04/11 10:08:31;;;;;;;6.68;2.80;;;13.60;14.40;;;;;;4994037;28;20438;-73
2023/04/11 10:11:01;;;;;;;9.60;2.88;;;13.90;14.60;;;;;;4993036;28;20393;-73
2023/04/11 10:13:37;;;;;;;10.07;2.90;;;14.00;14.70;;;;;;4993563;28;20408;-72
2023/04/11 10:16:19;;;;;;;10.18;2.75;;;13.80;14.70;;;;;;4993822;28;20399;-72
2023/04/11 10:18:53;;;;;;;8.23;2.60;;;14.00;14.00;;;;;;4993649;28;20397;-71
2023/04/11 10:21:38;;;;;;;8.40;3.55;;;14.00;12.40;;;;;;4992991;28;20397;-72
2023/04/11 10:24:15;;;;;;;7.53;3.20;;;13.50;13.60;;;;;;4995514;28;20399;-70
2023/04/11 10:27:10;;;;;;;10.27;3.30;;;13.30;14.50;;;;;;4994021;28;20405;-71
2023/04/11 10:29:45;;;;;;;8.88;3.10;;;13.10;13.80;;;;;;4989054;28;20415;-71
2023/04/11 10:32:14;;;;;;;13.40;3.50;;;12.90;13.90;;;;;;4991635;28;20429;-71
2023/04/11 10:34:49;;;;;;;11.88;3.50;;;13.00;14.20;;;;;;5008711;28;20410;-70
2023/04/11 10:37:16;;;;;;;10.75;3.60;;;13.00;14.70;;;;;;4993290;28;20545;-72
2023/04/11 10:39:54;;;;;;;9.07;3.58;;;12.90;14.60;;;;;;4993115;28;20378;-72
2023/04/11 10:42:42;;;;;;;18.67;3.70;;;12.90;14.50;;;;;;4992965;28;20949;-71
2023/04/11 10:45:16;;;;;;;9.57;4.00;;;13.00;14.30;;;;;;4993490;28;20389;-72
2023/04/11 10:47:43;;;;;;;7.13;3.20;;;13.00;14.00;;;;;;4993249;28;20402;-72
2023/04/11 10:50:24;;;;;;;12.65;3.60;;;13.10;12.30;;;;;;4992969;28;20418;-71
2023/04/11 10:52:49;;;;;;;6.82;3.28;;;13.40;13.10;;;;;;4992787;28;20674;-71
2023/04/11 10:55:16;;;;;;;9.40;3.60;;;13.70;12.40;;;;;;4993308;28;20477;-73
2023/04/11 10:58:18;;;;;;;11.93;4.13;;;13.80;12.00;;;;;;4993195;28;20386;-73
2023/04/11 11:00:49;;;;;;;11.02;3.78;;;13.70;11.70;;;;;;4993019;28;20379;-73
2023/04/11 11:03:17;;;;;;;7.45;3.70;;;13.60;12.90;;;;;;4992275;28;20871;-71
2023/04/11 11:05:43;;;;;;;13.38;3.83;;;13.60;12.30;;;;;;4993007;28;20390;-71
2023/04/11 11:08:09;;;;;;;9.45;3.70;;;13.60;12.20;;;;;;4993885;28;20401;-73
2023/04/11 11:10:42;;;;;;;9.85;3.63;;;13.60;11.90;;;;;;4992965;28;20390;-73
2023/04/11 11:13:08;;;;;;;11.90;3.75;;;13.60;12.10;;;;;;4993010;28;20762;-74
2023/04/11 11:15:36;;;;;;;11.77;3.70;;;13.70;11.60;;;;;;5011411;28;20469;-72
2023/04/11 11:18:04;;;;;;;11.85;3.50;;;13.60;11.90;;;;;;5009230;28;20393;-74
2023/04/11 11:20:30;;;;;;;9.55;3.50;;;13.50;12.30;;;;;;5004174;28;20391;-72
2023/04/11 11:23:00;;;;;;;8.77;3.13;;;13.60;11.00;;;;;;4992697;28;20885;-74
2023/04/11 11:25:26;;;;;;;7.13;3.60;;;13.70;11.20;;;;;;4992797;28;20394;-73
2023/04/11 11:28:05;;;;;;;9.83;3.43;;;13.80;11.50;;;;;;4993473;28;20445;-72
2023/04/11 11:30:31;;;;;;;10.05;4.00;;;14.10;11.10;;;;;;4993400;28;20481;-72
2023/04/11 11:32:57;;;;;;;9.10;3.20;;;14.30;10.60;;;;;;4994463;28;20439;-73
2023/04/11 11:35:23;;;;;;;11.63;3.60;;;14.40;10.20;;;;;;4993764;28;20410;-71
2023/04/11 11:37:51;;;;;;;9.55;3.72;;;14.70;10.00;;;;;;4994921;28;20449;-72
2023/04/11 11:40:20;;;;;;;11.40;3.37;;;14.70;9.60;;;;;;4994474;28;20432;-71
2023/04/11 11:42:49;;;;;;;13.18;3.42;;;14.50;10.10;;;;;;4992734;28;20449;-71
2023/04/11 11:45:19;;;;;;;7.53;2.88;;;14.40;10.50;;;;;;4993322;28;20393;-71
2023/04/11 11:47:47;;;;;;;7.78;3.00;;;14.10;11.50;;;;;;4976488;28;20815;-73
2023/04/11 11:50:27;;;;;;;12.02;3.28;;;14.20;11.00;;;;;;4993601;28;20486;-75
2023/04/11 11:52:53;;;;;;;10.10;3.30;;;14.50;11.00;;;;;;4992087;28;20395;-73
2023/04/11 11:55:18;;;;;;;11.18;3.60;;;14.90;9.30;;;;;;4991311;28;20410;-72
2023/04/11 11:57:45;;;;;;;7.90;3.30;;;14.90;9.30;;;;;;4993699;28;20743;-75
2023/04/11 12:00:11;;;;;;;7.18;3.50;;;14.90;9.00;;;;;;4999515;28;20383;-72
2023/04/11 12:02:38;;;;;;;10.60;3.90;;;15.00;9.00;;;;;;5000936;28;20764;-74
2023/04/11 12:05:05;;;;;;;7.93;3.33;;;15.10;9.90;;;;;;5000216;28;20457;-73
2023/04/11 12:07:32;;;;;;;13.02;3.53;;;15.20;8.70;;;;;;4997817;28;20386;-72
2023/04/11 12:10:05;;;;;;;10.85;3.60;;;15.20;8.60;;;;;;4998108;28;20481;-73
2023/04/11 12:12:37;;;;;;;9.93;3.50;;;14.90;9.30;;;;;;4997435;28;20405;-74
2023/04/11 12:15:12;;;;;;;9.20;3.20;;;14.50;9.10;;;;;;4998366;28;20424;-75
2023/04/11 12:17:39;;;;;;;8.43;3.38;;;14.60;8.10;;;;;;4994010;28;20445;-72
2023/04/11 12:20:06;;;;;;;8.20;3.30;;;14.80;8.50;;;;;;4993455;28;20505;-72
2023/04/11 12:22:32;;;;;;;6.40;3.30;;;15.40;8.80;;;;;;4992268;28;20399;-70
2023/04/11 12:25:05;;;;;;;11.43;3.20;;;15.80;8.00;;;;;;4991993;28;20402;-72
2023/04/11 12:27:33;;;;;;;8.65;2.70;;;16.10;6.50;;;;;;4997735;28;20394;-74
2023/04/11 12:30:00;;;;;;;11.60;3.08;;;16.20;6.10;;;;;;4996828;28;20859;-72
2023/04/11 12:32:26;;;;;;;6.93;2.80;;;16.20;5.50;;;;;;4995827;28;20701;-72
2023/04/11 12:34:53;;;;;;;12.60;3.13;;;16.40;5.80;;;;;;4996136;28;20902;-72
2023/04/11 12:37:19;;;;;;;10.82;2.90;;;16.60;4.70;;;;;;4996604;28;20386;-72
2023/04/11 12:39:44;;;;;;;5.75;2.90;;;16.40;5.20;;;;;;4995197;28;20401;-71
2023/04/11 12:42:10;;;;;;;7.53;3.28;;;16.30;5.60;;;;;;4995902;28;20876;-71
2023/04/11 12:44:35;;;;;;;8.25;2.70;;;15.90;6.00;;;;;;4995771;28;20394;-72
2023/04/11 12:47:01;;;;;;;8.75;3.15;;;15.70;6.50;;;;;;4995962;28;20459;-72